Time;durP1;ratioP1;P1;durP2;ratioP2;P2;SDS_P1;SDS_P2;PMS_P1;PMS_P2;Temp;Humidity;BMP_temperature;BMP_pressure;BME280_temperature;BME280_humidity;BME280_pressure;Samples;Min_cycle;Max_cycle;Signal;HPM_P1;HPM_P2
2023/07/14 00:00:35;;;;;;;7.63;4.27;;;;;;;;;;5014478;28;20529;-75
2023/07/14 00:03:03;;;;;;;5.00;4.50;;;;;;;;;;5014512;28;20459;-75
2023/07/14 00:05:33;;;;;;;6.50;4.00;;;;;;;;;;5014497;28;20459;-75
2023/07/14 00:08:01;;;;;;;6.30;4.47;;;;;;;;;;5014325;28;20834;-75
2023/07/14 00:10:30;;;;;;;5.17;4.33;;;;;;;;;;5014149;28;20495;-75
2023/07/14 00:12:58;;;;;;;10.00;5.43;;;;;;;;;;5013931;28;21018;-75
2023/07/14 00:15:26;;;;;;;5.77;4.93;;;;;;;;;;5014212;28;20485;-75
2023/07/14 00:17:55;;;;;;;4.17;3.80;;;;;;;;;;5014143;28;20573;-75
2023/07/14 00:20:24;;;;;;;5.50;3.83;;;;;;;;;;5014049;28;20478;-75
2023/07/14 00:22:53;;;;;;;6.10;5.23;;;;;;;;;;5014097;28;20471;-75
2023/07/14 00:25:22;;;;;;;5.27;4.20;;;;;;;;;;5014136;28;20542;-75
2023/07/14 00:27:49;;;;;;;5.30;4.00;;;;;;;;;;5013816;28;20459;-75
2023/07/14 00:30:18;;;;;;;5.80;5.27;;;;;;;;;;5013903;28;20490;-75
2023/07/14 00:32:45;;;;;;;5.53;4.47;;;;;;;;;;5013805;28;20473;-75
2023/07/14 00:35:20;;;;;;;5.97;5.13;;;;;;;;;;5013982;28;20461;-75
2023/07/14 00:37:48;;;;;;;13.33;4.37;;;;;;;;;;5013768;28;20589;-75
2023/07/14 00:40:19;;;;;;;7.17;4.30;;;;;;;;;;5013883;28;20867;-75
2023/07/14 00:42:47;;;;;;;6.60;5.50;;;;;;;;;;5013798;28;20459;-76
2023/07/14 00:45:18;;;;;;;5.97;5.37;;;;;;;;;;5013943;28;20826;-75
2023/07/14 00:47:46;;;;;;;5.40;4.90;;;;;;;;;;5013631;28;20458;-75
2023/07/14 00:50:17;;;;;;;7.37;5.30;;;;;;;;;;5013605;28;20487;-75
2023/07/14 00:52:46;;;;;;;5.77;5.27;;;;;;;;;;5013728;28;20874;-75
2023/07/14 00:55:28;;;;;;;7.17;5.13;;;;;;;;;;5013687;28;20466;-75
2023/07/14 00:57:58;;;;;;;5.83;5.23;;;;;;;;;;5011723;28;20531;-75
2023/07/14 01:00:27;;;;;;;5.70;5.20;;;;;;;;;;5013464;28;21006;-75
2023/07/14 01:02:56;;;;;;;5.60;5.10;;;;;;;;;;5013633;28;20443;-75
2023/07/14 01:05:23;;;;;;;7.17;5.47;;;;;;;;;;5013386;28;20455;-75
2023/07/14 01:07:50;;;;;;;5.33;4.83;;;;;;;;;;5013208;28;20820;-75
2023/07/14 01:10:21;;;;;;;6.40;5.43;;;;;;;;;;5013316;28;20526;-75
2023/07/14 01:12:49;;;;;;;8.00;6.10;;;;;;;;;;5013127;28;21006;-75
2023/07/14 01:15:17;;;;;;;6.30;5.57;;;;;;;;;;5013399;28;20454;-75
2023/07/14 01:17:45;;;;;;;7.23;6.37;;;;;;;;;;5013107;28;20461;-75
2023/07/14 01:23:25;;;;;;;6.23;5.30;;;;;;;;;;5013105;28;20465;-75
2023/07/14 01:25:57;;;;;;;8.30;5.87;;;;;;;;;;5013429;28;20446;-75
2023/07/14 01:28:25;;;;;;;8.10;6.37;;;;;;;;;;5012953;28;20978;-75
2023/07/14 01:30:53;;;;;;;4.30;4.00;;;;;;;;;;5013025;28;20533;-75
2023/07/14 01:33:20;;;;;;;9.97;4.90;;;;;;;;;;5013164;28;20462;-76
2023/07/14 01:35:50;;;;;;;5.20;4.70;;;;;;;;;;5012986;28;20447;-76
2023/07/14 01:38:18;;;;;;;5.77;4.53;;;;;;;;;;5012961;28;21011;-76
2023/07/14 01:40:45;;;;;;;12.03;5.73;;;;;;;;;;5012916;28;20475;-75
2023/07/14 01:43:13;;;;;;;6.80;5.00;;;;;;;;;;5013151;28;20513;-76
2023/07/14 01:45:44;;;;;;;6.43;5.27;;;;;;;;;;5015797;28;20463;-76
2023/07/14 01:48:12;;;;;;;7.60;6.23;;;;;;;;;;5016797;28;20451;-75
2023/07/14 01:50:42;;;;;;;14.03;5.70;;;;;;;;;;5016806;28;20497;-75
2023/07/14 01:53:11;;;;;;;5.70;5.20;;;;;;;;;;5017092;28;20827;-75
2023/07/14 01:55:39;;;;;;;7.60;5.07;;;;;;;;;;5016789;28;20462;-76
2023/07/14 01:58:11;;;;;;;6.60;5.57;;;;;;;;;;5016879;28;20473;-75
2023/07/14 02:00:39;;;;;;;6.03;5.20;;;;;;;;;;5016597;28;20991;-75
2023/07/14 02:03:09;;;;;;;6.17;4.97;;;;;;;;;;5016777;28;20451;-75
2023/07/14 02:05:37;;;;;;;5.37;4.87;;;;;;;;;;5016751;28;20454;-75
2023/07/14 02:08:07;;;;;;;5.30;4.80;;;;;;;;;;5016594;28;20463;-76
2023/07/14 02:10:34;;;;;;;5.43;4.93;;;;;;;;;;5016476;28;20848;-75
2023/07/14 02:13:03;;;;;;;7.67;5.90;;;;;;;;;;5016189;28;20828;-76
2023/07/14 02:15:31;;;;;;;7.70;5.37;;;;;;;;;;5016548;28;20481;-74
2023/07/14 02:17:58;;;;;;;6.53;5.20;;;;;;;;;;5016413;28;20454;-75
2023/07/14 02:20:29;;;;;;;6.03;5.00;;;;;;;;;;5016331;28;20474;-76
2023/07/14 02:22:57;;;;;;;5.67;4.97;;;;;;;;;;5016478;28;20462;-76
2023/07/14 02:25:26;;;;;;;6.83;5.27;;;;;;;;;;5016364;28;20454;-75
2023/07/14 02:27:53;;;;;;;6.00;4.57;;;;;;;;;;5016092;28;20462;-75
2023/07/14 02:30:21;;;;;;;10.03;5.43;;;;;;;;;;5016072;28;20494;-75
2023/07/14 02:32:50;;;;;;;6.90;6.20;;;;;;;;;;5016384;28;20821;-75
2023/07/14 02:35:21;;;;;;;6.03;5.43;;;;;;;;;;5016019;28;20462;-75
2023/07/14 02:38:03;;;;;;;7.57;6.03;;;;;;;;;;5015886;28;20454;-75
2023/07/14 02:40:31;;;;;;;9.83;6.00;;;;;;;;;;5016078;28;20532;-75
2023/07/14 02:42:58;;;;;;;8.53;5.97;;;;;;;;;;5016138;28;20454;-75
2023/07/14 02:45:25;;;;;;;6.87;6.17;;;;;;;;;;5015831;28;20462;-75
2023/07/14 02:47:53;;;;;;;9.67;6.63;;;;;;;;;;5015726;28;20451;-75
2023/07/14 02:50:20;;;;;;;7.80;5.20;;;;;;;;;;5015837;28;20536;-75
2023/07/14 02:52:47;;;;;;;9.13;4.90;;;;;;;;;;5015827;28;20454;-75
2023/07/14 02:55:16;;;;;;;14.10;5.73;;;;;;;;;;5015740;28;20470;-75
2023/07/14 02:57:43;;;;;;;6.10;5.50;;;;;;;;;;5015628;28;20481;-75
2023/07/14 03:00:11;;;;;;;8.13;5.77;;;;;;;;;;5015696;28;20454;-75
2023/07/14 03:02:39;;;;;;;9.03;6.17;;;;;;;;;;5015738;28;20873;-75
2023/07/14 03:05:07;;;;;;;9.70;7.07;;;;;;;;;;5015706;28;20509;-75
2023/07/14 03:07:35;;;;;;;6.77;5.50;;;;;;;;;;5015406;28;20455;-75
2023/07/14 03:10:03;;;;;;;8.90;6.40;;;;;;;;;;5015541;28;20466;-75
2023/07/14 03:12:31;;;;;;;6.73;6.17;;;;;;;;;;5014899;28;20451;-75
2023/07/14 03:14:58;;;;;;;6.50;5.80;;;;;;;;;;5015575;28;20462;-75
2023/07/14 03:17:25;;;;;;;12.30;5.90;;;;;;;;;;5015221;28;20446;-75
2023/07/14 03:19:53;;;;;;;6.57;5.97;;;;;;;;;;5015444;28;20824;-75
2023/07/14 03:22:20;;;;;;;5.40;4.90;;;;;;;;;;5015114;28;20483;-75
2023/07/14 03:24:47;;;;;;;5.30;4.80;;;;;;;;;;5015270;28;20451;-75
2023/07/14 03:27:14;;;;;;;5.13;4.63;;;;;;;;;;5015154;28;20450;-75
2023/07/14 03:29:42;;;;;;;4.80;4.40;;;;;;;;;;5014706;28;20857;-75
2023/07/14 03:32:13;;;;;;;6.57;4.70;;;;;;;;;;5014468;28;20502;-75
2023/07/14 03:34:40;;;;;;;5.27;4.77;;;;;;;;;;5014512;28;20455;-75
2023/07/14 03:37:07;;;;;;;4.93;4.53;;;;;;;;;;5014493;28;20866;-75
2023/07/14 03:39:34;;;;;;;6.70;4.43;;;;;;;;;;5014339;28;20455;-75
2023/07/14 03:42:02;;;;;;;5.83;4.43;;;;;;;;;;5014424;28;20535;-75
2023/07/14 03:44:29;;;;;;;4.87;4.20;;;;;;;;;;5014711;28;20891;-75
2023/07/14 03:46:57;;;;;;;4.97;4.47;;;;;;;;;;5014087;28;20454;-75
2023/07/14 03:49:24;;;;;;;10.70;5.73;;;;;;;;;;5014420;28;20801;-75
2023/07/14 03:51:53;;;;;;;8.50;6.67;;;;;;;;;;5014030;28;20506;-75
2023/07/14 03:54:20;;;;;;;4.83;4.17;;;;;;;;;;5014220;28;20450;-75
2023/07/14 03:56:47;;;;;;;4.87;4.47;;;;;;;;;;5014047;28;20940;-75
2023/07/14 03:59:14;;;;;;;5.30;4.50;;;;;;;;;;5014006;28;20454;-75
2023/07/14 04:01:41;;;;;;;6.37;5.77;;;;;;;;;;5013899;28;20783;-75
2023/07/14 04:04:10;;;;;;;8.50;6.43;;;;;;;;;;5014093;28;20455;-75
2023/07/14 04:06:37;;;;;;;7.20;6.37;;;;;;;;;;5013897;28;20466;-75
2023/07/14 04:09:04;;;;;;;10.13;7.07;;;;;;;;;;5013390;28;20458;-75
2023/07/14 04:11:34;;;;;;;5.00;4.50;;;;;;;;;;5013778;28;20501;-75
2023/07/14 04:14:01;;;;;;;8.60;5.43;;;;;;;;;;5013402;28;20521;-75
2023/07/14 04:16:28;;;;;;;8.37;5.27;;;;;;;;;;5013971;28;20808;-75
2023/07/14 04:18:55;;;;;;;5.43;4.20;;;;;;;;;;5013672;28;20465;-75
2023/07/14 04:21:24;;;;;;;3.57;3.27;;;;;;;;;;5013756;28;20474;-75
2023/07/14 04:23:52;;;;;;;3.70;3.23;;;;;;;;;;5013564;28;20471;-75
2023/07/14 04:26:19;;;;;;;4.20;3.30;;;;;;;;;;5013633;28;21010;-76
2023/07/14 04:28:47;;;;;;;5.13;4.50;;;;;;;;;;5013438;28;20447;-76
2023/07/14 04:31:14;;;;;;;3.73;3.37;;;;;;;;;;5013391;28;20868;-76
2023/07/14 04:33:43;;;;;;;4.57;4.17;;;;;;;;;;5013488;28;20815;-76
2023/07/14 04:36:11;;;;;;;10.87;4.03;;;;;;;;;;5013358;28;20458;-76
2023/07/14 04:38:42;;;;;;;3.23;2.93;;;;;;;;;;5013316;28;20846;-76
2023/07/14 04:41:09;;;;;;;6.83;3.00;;;;;;;;;;5013456;28;20532;-76
2023/07/14 04:43:36;;;;;;;4.70;3.50;;;;;;;;;;5013384;28;20474;-76
2023/07/14 04:46:03;;;;;;;2.57;2.37;;;;;;;;;;5013234;28;20458;-76
2023/07/14 04:48:31;;;;;;;5.47;2.90;;;;;;;;;;5012954;28;20824;-76
2023/07/14 04:50:58;;;;;;;3.70;2.47;;;;;;;;;;5013185;28;20513;-76
2023/07/14 04:53:25;;;;;;;3.37;2.40;;;;;;;;;;5013132;28;20486;-76
2023/07/14 04:55:53;;;;;;;3.40;2.60;;;;;;;;;;5013033;28;20454;-76
2023/07/14 04:58:21;;;;;;;4.80;3.07;;;;;;;;;;5012890;28;20459;-76
2023/07/14 05:00:48;;;;;;;4.10;2.77;;;;;;;;;;5012834;28;20490;-76
2023/07/14 05:03:16;;;;;;;5.30;2.73;;;;;;;;;;5013006;28;20450;-76
2023/07/14 05:05:43;;;;;;;3.70;2.40;;;;;;;;;;5013097;28;20795;-76
2023/07/14 05:08:10;;;;;;;3.00;2.00;;;;;;;;;;5012782;28;20455;-76
2023/07/14 05:10:38;;;;;;;5.33;3.80;;;;;;;;;;5012564;28;20499;-76
2023/07/14 05:13:07;;;;;;;3.47;3.17;;;;;;;;;;5012617;28;20867;-76
2023/07/14 05:15:34;;;;;;;4.70;2.20;;;;;;;;;;5012725;28;21026;-76
2023/07/14 05:18:02;;;;;;;3.60;2.33;;;;;;;;;;5012828;28;20450;-74
2023/07/14 05:20:30;;;;;;;5.93;2.53;;;;;;;;;;5011808;28;20470;-74
2023/07/14 05:22:58;;;;;;;4.43;2.10;;;;;;;;;;5012698;28;20465;-75
2023/07/14 05:25:25;;;;;;;4.23;3.07;;;;;;;;;;5012736;28;20458;-75
2023/07/14 05:27:52;;;;;;;4.37;3.70;;;;;;;;;;5013159;28;20459;-75
2023/07/14 05:30:21;;;;;;;3.33;2.10;;;;;;;;;;5012996;28;20474;-75
2023/07/14 05:32:49;;;;;;;4.20;1.97;;;;;;;;;;5012764;28;20471;-75
2023/07/14 05:35:17;;;;;;;3.30;2.07;;;;;;;;;;5012662;28;20458;-76
2023/07/14 05:37:45;;;;;;;2.47;1.83;;;;;;;;;;5013106;28;20465;-75
2023/07/14 05:40:12;;;;;;;2.57;2.37;;;;;;;;;;5012963;28;20465;-74
2023/07/14 05:42:40;;;;;;;6.00;2.37;;;;;;;;;;5012828;28;20454;-75
2023/07/14 05:45:08;;;;;;;2.20;2.00;;;;;;;;;;5013134;28;20447;-75
2023/07/14 05:47:37;;;;;;;2.43;1.80;;;;;;;;;;5013059;28;20451;-74
2023/07/14 05:50:05;;;;;;;3.80;2.13;;;;;;;;;;5013117;28;20931;-74
2023/07/14 05:52:32;;;;;;;3.07;2.20;;;;;;;;;;5013113;28;20498;-75
2023/07/14 05:54:59;;;;;;;6.13;1.97;;;;;;;;;;5012819;28;20457;-74
2023/07/14 05:57:26;;;;;;;5.40;1.87;;;;;;;;;;5013040;28;20915;-75
2023/07/14 05:59:54;;;;;;;2.97;2.13;;;;;;;;;;5013029;28;20461;-74
2023/07/14 06:02:21;;;;;;;3.23;1.80;;;;;;;;;;5013006;28;20481;-74
2023/07/14 06:04:49;;;;;;;2.30;1.90;;;;;;;;;;5012694;28;20458;-74
2023/07/14 06:07:17;;;;;;;5.53;2.10;;;;;;;;;;5012880;28;20454;-75
2023/07/14 06:09:44;;;;;;;3.50;2.10;;;;;;;;;;5012893;28;20557;-76
2023/07/14 06:12:12;;;;;;;3.30;2.10;;;;;;;;;;5012445;28;20502;-76
2023/07/14 06:14:41;;;;;;;4.10;2.20;;;;;;;;;;5012870;28;20441;-75
2023/07/14 06:17:09;;;;;;;2.30;2.00;;;;;;;;;;5012726;28;20935;-76
2023/07/14 06:19:37;;;;;;;5.07;2.03;;;;;;;;;;5013030;28;20990;-75
2023/07/14 06:22:06;;;;;;;3.70;1.90;;;;;;;;;;5010366;28;20520;-76
2023/07/14 06:24:35;;;;;;;6.00;2.70;;;;;;;;;;5011124;28;20497;-75
2023/07/14 06:27:03;;;;;;;2.00;1.80;;;;;;;;;;5010930;28;20465;-75
2023/07/14 06:29:30;;;;;;;3.83;1.73;;;;;;;;;;5011392;28;20533;-75
2023/07/14 06:31:58;;;;;;;3.73;2.30;;;;;;;;;;5013725;28;20509;-76
2023/07/14 06:34:25;;;;;;;4.77;2.40;;;;;;;;;;5015176;28;20787;-75
2023/07/14 06:36:52;;;;;;;2.40;2.20;;;;;;;;;;5014860;28;20465;-75
2023/07/14 06:39:21;;;;;;;2.07;1.87;;;;;;;;;;5014766;28;20457;-75
2023/07/14 06:41:49;;;;;;;2.33;2.07;;;;;;;;;;5014828;28;20465;-75
2023/07/14 06:44:16;;;;;;;2.27;2.00;;;;;;;;;;5014627;28;20842;-75
2023/07/14 06:46:44;;;;;;;3.63;1.80;;;;;;;;;;5014775;28;20900;-75
2023/07/14 06:49:11;;;;;;;3.53;2.30;;;;;;;;;;5014750;28;20873;-75
2023/07/14 06:51:38;;;;;;;6.93;2.00;;;;;;;;;;5014379;28;20489;-75
2023/07/14 06:54:05;;;;;;;6.20;2.00;;;;;;;;;;5014727;28;20938;-75
2023/07/14 06:56:33;;;;;;;3.20;2.10;;;;;;;;;;5014749;28;20450;-73
2023/07/14 06:59:02;;;;;;;2.77;1.90;;;;;;;;;;5014780;28;20686;-74
2023/07/14 07:01:29;;;;;;;3.00;1.80;;;;;;;;;;5015386;28;20474;-73
2023/07/14 07:03:56;;;;;;;2.03;1.80;;;;;;;;;;5015364;28;20777;-73
2023/07/14 07:06:24;;;;;;;4.80;1.73;;;;;;;;;;5015351;28;20450;-74
2023/07/14 07:08:52;;;;;;;3.17;1.80;;;;;;;;;;5015655;28;20462;-74
2023/07/14 07:11:19;;;;;;;2.73;1.67;;;;;;;;;;5015560;28;20239;-74
2023/07/14 07:13:47;;;;;;;1.97;1.77;;;;;;;;;;5015523;28;20215;-75
2023/07/14 07:16:14;;;;;;;4.50;1.67;;;;;;;;;;5015396;28;20195;-75
2023/07/14 07:18:41;;;;;;;2.40;1.70;;;;;;;;;;5015306;28;20234;-73
2023/07/14 07:21:12;;;;;;;1.90;1.70;;;;;;;;;;5015418;28;20592;-76
2023/07/14 07:23:39;;;;;;;2.00;1.53;;;;;;;;;;5014949;28;20466;-74
2023/07/14 07:26:07;;;;;;;2.10;1.70;;;;;;;;;;5014888;28;20265;-75
2023/07/14 07:28:34;;;;;;;2.00;1.73;;;;;;;;;;5014785;28;20461;-75
2023/07/14 07:31:09;;;;;;;1.90;1.57;;;;;;;;;;5015095;28;20485;-75
2023/07/14 07:33:36;;;;;;;2.10;1.60;;;;;;;;;;5014950;28;20975;-75
2023/07/14 07:36:14;;;;;;;2.60;1.50;;;;;;;;;;5014922;28;20927;-75
2023/07/14 07:38:41;;;;;;;1.80;1.57;;;;;;;;;;5014946;28;20911;-75
2023/07/14 07:41:09;;;;;;;1.80;1.70;;;;;;;;;;5014516;28;20474;-75
2023/07/14 07:43:36;;;;;;;6.87;2.20;;;;;;;;;;5013389;28;20450;-75
2023/07/14 07:46:03;;;;;;;4.10;1.80;;;;;;;;;;5014766;28;20795;-75
2023/07/14 07:48:31;;;;;;;3.30;1.80;;;;;;;;;;5014800;28;20577;-75
2023/07/14 07:50:58;;;;;;;2.10;1.80;;;;;;;;;;5014831;28;20474;-75
2023/07/14 07:53:25;;;;;;;3.30;1.80;;;;;;;;;;5013222;28;20468;-75
2023/07/14 07:55:53;;;;;;;6.40;2.40;;;;;;;;;;5014614;28;20939;-75
2023/07/14 07:58:24;;;;;;;3.00;2.03;;;;;;;;;;5014636;28;20950;-75
2023/07/14 08:00:52;;;;;;;3.00;2.13;;;;;;;;;;5012890;28;20482;-74
2023/07/14 08:06:27;;;;;;;2.57;1.87;;;;;;;;;;5012365;28;20914;-74
2023/07/14 08:08:54;;;;;;;3.67;3.33;;;;;;;;;;5013136;28;20438;-74
2023/07/14 08:11:21;;;;;;;4.93;2.73;;;;;;;;;;5012675;28;20890;-74
2023/07/14 08:13:49;;;;;;;2.67;2.33;;;;;;;;;;5012987;28;20532;-74
2023/07/14 08:16:17;;;;;;;3.23;2.33;;;;;;;;;;5012679;28;20475;-74
2023/07/14 08:18:44;;;;;;;4.20;2.30;;;;;;;;;;5012993;28;20466;-74
2023/07/14 08:21:11;;;;;;;3.80;2.23;;;;;;;;;;5012979;28;21365;-74
2023/07/14 08:23:40;;;;;;;3.13;2.17;;;;;;;;;;5012829;28;20485;-74
2023/07/14 08:26:08;;;;;;;4.00;2.27;;;;;;;;;;5012631;28;20458;-73
2023/07/14 08:28:35;;;;;;;3.10;2.40;;;;;;;;;;5012505;28;20932;-73
2023/07/14 08:31:04;;;;;;;4.53;2.37;;;;;;;;;;5012397;28;20478;-73
2023/07/14 08:33:31;;;;;;;3.40;2.13;;;;;;;;;;5012203;28;20995;-73
2023/07/14 08:36:00;;;;;;;2.80;2.07;;;;;;;;;;5012296;28;20449;-73
2023/07/14 08:38:28;;;;;;;3.47;2.00;;;;;;;;;;5011906;28;20461;-73
2023/07/14 08:40:58;;;;;;;5.60;1.97;;;;;;;;;;5012055;28;20540;-73
2023/07/14 08:43:30;;;;;;;2.30;1.87;;;;;;;;;;5011986;28;20459;-73
2023/07/14 08:45:59;;;;;;;3.53;2.50;;;;;;;;;;5012135;28;20461;-73
2023/07/14 08:48:28;;;;;;;2.30;2.10;;;;;;;;;;5011553;28;20939;-73
2023/07/14 08:50:56;;;;;;;2.30;2.10;;;;;;;;;;5011937;28;20486;-73
2023/07/14 08:53:27;;;;;;;5.73;2.30;;;;;;;;;;5011521;28;20493;-73
2023/07/14 08:55:56;;;;;;;2.30;2.10;;;;;;;;;;5011853;28;20477;-73
2023/07/14 08:58:25;;;;;;;4.43;2.67;;;;;;;;;;5011622;28;20454;-73
2023/07/14 09:01:02;;;;;;;3.50;2.30;;;;;;;;;;5011624;28;20493;-73
2023/07/14 09:03:37;;;;;;;5.40;2.90;;;;;;;;;;5011372;28;20821;-73
2023/07/14 09:06:06;;;;;;;3.30;2.27;;;;;;;;;;5011584;28;20971;-73
2023/07/14 09:08:33;;;;;;;3.47;2.57;;;;;;;;;;5011254;28;20458;-73
2023/07/14 09:11:02;;;;;;;2.90;2.30;;;;;;;;;;5011160;28;20470;-73
2023/07/14 09:13:39;;;;;;;3.37;3.00;;;;;;;;;;5010876;28;20489;-73
2023/07/14 09:16:06;;;;;;;2.77;2.57;;;;;;;;;;5011030;28;20446;-73
2023/07/14 09:18:50;;;;;;;5.03;2.60;;;;;;;;;;5011769;28;20459;-73
2023/07/14 09:21:21;;;;;;;2.63;2.20;;;;;;;;;;5012368;28;20983;-73
2023/07/14 09:24:18;;;;;;;2.50;2.30;;;;;;;;;;5012658;28;20459;-73
2023/07/14 09:26:46;;;;;;;3.40;2.03;;;;;;;;;;4971102;28;20452;-73
2023/07/14 09:29:17;;;;;;;5.03;2.30;;;;;;;;;;5003031;28;20471;-74
2023/07/14 09:31:47;;;;;;;2.77;2.47;;;;;;;;;;5012538;28;20475;-73
2023/07/14 09:34:22;;;;;;;5.80;2.40;;;;;;;;;;5012443;28;21092;-73
2023/07/14 09:36:49;;;;;;;3.70;2.13;;;;;;;;;;5012315;28;20462;-73
2023/07/14 09:39:22;;;;;;;5.40;2.33;;;;;;;;;;5012563;28;20458;-75
2023/07/14 09:41:52;;;;;;;4.67;2.23;;;;;;;;;;5013146;28;20976;-75
2023/07/14 09:44:21;;;;;;;3.50;2.40;;;;;;;;;;5012972;28;20438;-75
2023/07/14 09:46:49;;;;;;;2.60;2.40;;;;;;;;;;5012691;28;20458;-75
2023/07/14 09:49:22;;;;;;;2.73;1.73;;;;;;;;;;5012485;28;20455;-75
2023/07/14 09:52:01;;;;;;;3.50;2.00;;;;;;;;;;5012807;28;20470;-75
2023/07/14 09:54:28;;;;;;;2.50;2.20;;;;;;;;;;5012849;28;20471;-75
2023/07/14 09:57:01;;;;;;;2.50;2.10;;;;;;;;;;5012545;28;20450;-75
2023/07/14 09:59:30;;;;;;;2.90;2.37;;;;;;;;;;5012952;28;20439;-75
2023/07/14 10:01:58;;;;;;;4.03;2.63;;;;;;;;;;5012661;28;20497;-75
2023/07/14 10:04:28;;;;;;;6.60;2.43;;;;;;;;;;5012869;28;20477;-76
2023/07/14 10:06:55;;;;;;;3.70;2.00;;;;;;;;;;5015854;28;20446;-75
2023/07/14 10:09:23;;;;;;;3.53;2.07;;;;;;;;;;5016750;28;20821;-75
2023/07/14 10:11:50;;;;;;;2.60;2.00;;;;;;;;;;5016236;28;20474;-75
2023/07/14 10:14:20;;;;;;;4.10;2.67;;;;;;;;;;5016450;28;20486;-75
2023/07/14 10:16:49;;;;;;;4.13;2.47;;;;;;;;;;5016309;28;20470;-76
2023/07/14 10:19:18;;;;;;;4.17;1.90;;;;;;;;;;5016400;28;20470;-75
2023/07/14 10:21:51;;;;;;;2.10;1.90;;;;;;;;;;5015905;28;20482;-75
2023/07/14 10:24:20;;;;;;;5.90;2.13;;;;;;;;;;5016572;28;20422;-75
2023/07/14 10:26:51;;;;;;;2.40;2.20;;;;;;;;;;5016162;28;20943;-76
2023/07/14 10:29:19;;;;;;;5.20;3.27;;;;;;;;;;5015940;28;20762;-75
2023/07/14 10:31:50;;;;;;;3.23;2.30;;;;;;;;;;5016048;28;20470;-75
2023/07/14 10:34:22;;;;;;;4.33;2.43;;;;;;;;;;5016134;28;20960;-75
2023/07/14 10:36:52;;;;;;;4.13;2.40;;;;;;;;;;5015784;28;20438;-75
2023/07/14 10:39:23;;;;;;;4.93;2.20;;;;;;;;;;5015834;28;20947;-75
2023/07/14 10:41:50;;;;;;;5.13;2.20;;;;;;;;;;5015753;28;20470;-75
2023/07/14 10:44:20;;;;;;;2.30;2.10;;;;;;;;;;5015774;28;20447;-75
2023/07/14 10:46:52;;;;;;;5.97;4.10;;;;;;;;;;5015788;28;20454;-75
2023/07/14 10:49:24;;;;;;;5.40;2.07;;;;;;;;;;5015456;28;20439;-76
2023/07/14 10:51:53;;;;;;;2.97;2.10;;;;;;;;;;5015682;28;20960;-75
2023/07/14 10:54:35;;;;;;;3.60;2.20;;;;;;;;;;5015555;28;20513;-74
2023/07/14 10:57:04;;;;;;;2.30;2.10;;;;;;;;;;5015577;28;20447;-75
2023/07/14 10:59:34;;;;;;;5.30;2.50;;;;;;;;;;5015510;28;20936;-75
2023/07/14 11:02:06;;;;;;;3.70;2.37;;;;;;;;;;5015374;28;20478;-75
2023/07/14 11:04:35;;;;;;;6.23;2.20;;;;;;;;;;5015132;28;20442;-75
2023/07/14 11:07:03;;;;;;;3.50;2.67;;;;;;;;;;5015036;28;20461;-75
2023/07/14 11:09:30;;;;;;;3.40;2.20;;;;;;;;;;5015191;28;20508;-75
2023/07/14 11:12:04;;;;;;;7.83;2.20;;;;;;;;;;5015133;28;20481;-75
2023/07/14 11:14:35;;;;;;;4.70;2.60;;;;;;;;;;5015290;28;20478;-75
2023/07/14 11:17:09;;;;;;;2.93;2.37;;;;;;;;;;5013978;28;20932;-75
2023/07/14 11:19:44;;;;;;;4.00;2.77;;;;;;;;;;5015136;28;20438;-75
2023/07/14 11:22:15;;;;;;;4.23;2.10;;;;;;;;;;5014857;28;20968;-75
2023/07/14 11:24:46;;;;;;;2.17;1.57;;;;;;;;;;5015025;28;20454;-75
2023/07/14 11:27:20;;;;;;;2.60;2.40;;;;;;;;;;5014691;28;20443;-75
2023/07/14 11:29:52;;;;;;;3.67;2.17;;;;;;;;;;5014566;28;20439;-75
2023/07/14 11:32:22;;;;;;;13.00;3.53;;;;;;;;;;5014596;28;20478;-75
2023/07/14 11:34:54;;;;;;;6.90;2.13;;;;;;;;;;5014771;28;20803;-75
2023/07/14 11:37:29;;;;;;;8.73;2.20;;;;;;;;;;5014726;28;20450;-75
2023/07/14 11:39:58;;;;;;;5.30;2.33;;;;;;;;;;5014505;28;20442;-75
2023/07/14 11:42:27;;;;;;;3.40;3.10;;;;;;;;;;5014466;28;20473;-75
2023/07/14 11:44:55;;;;;;;2.83;2.03;;;;;;;;;;5014335;28;20448;-75
2023/07/14 11:47:26;;;;;;;3.40;2.20;;;;;;;;;;5014603;28;20573;-75
2023/07/14 11:49:54;;;;;;;3.93;2.30;;;;;;;;;;5014365;28;20439;-76
2023/07/14 11:52:22;;;;;;;2.53;1.87;;;;;;;;;;5014354;28;20475;-75
2023/07/14 11:54:56;;;;;;;3.73;1.87;;;;;;;;;;5014438;28;20490;-75
2023/07/14 11:57:24;;;;;;;7.17;2.30;;;;;;;;;;5014226;28;20439;-75
2023/07/14 11:59:56;;;;;;;9.40;2.20;;;;;;;;;;5014489;28;20512;-76
2023/07/14 12:02:31;;;;;;;2.73;1.70;;;;;;;;;;5014366;28;20904;-76
2023/07/14 12:04:59;;;;;;;8.73;2.17;;;;;;;;;;5013947;28;20434;-76
2023/07/14 12:07:26;;;;;;;3.43;2.00;;;;;;;;;;5013861;28;20454;-76
2023/07/14 12:10:00;;;;;;;2.10;1.60;;;;;;;;;;5014196;28;20832;-75
2023/07/14 12:12:28;;;;;;;1.87;1.60;;;;;;;;;;5014007;28;20943;-76
2023/07/14 12:14:55;;;;;;;2.23;1.80;;;;;;;;;;5014252;28;20525;-76
2023/07/14 12:17:43;;;;;;;2.43;1.73;;;;;;;;;;5013809;28;20455;-76
2023/07/14 12:20:31;;;;;;;2.53;2.07;;;;;;;;;;5013895;28;20463;-75
2023/07/14 12:23:22;;;;;;;1.97;1.53;;;;;;;;;;5010368;28;20919;-75
2023/07/14 12:25:52;;;;;;;2.67;1.73;;;;;;;;;;5003675;28;20987;-75
2023/07/14 12:28:22;;;;;;;3.77;1.83;;;;;;;;;;5013429;28;20447;-76
2023/07/14 12:30:52;;;;;;;2.40;2.00;;;;;;;;;;5013305;28;20471;-75
2023/07/14 12:33:21;;;;;;;3.20;1.50;;;;;;;;;;5013336;28;20458;-75
2023/07/14 12:35:50;;;;;;;2.80;1.90;;;;;;;;;;5013757;28;20469;-75
2023/07/14 12:38:18;;;;;;;2.00;1.70;;;;;;;;;;5014181;28;20948;-75
2023/07/14 12:40:45;;;;;;;2.10;1.87;;;;;;;;;;5013683;28;20589;-75
2023/07/14 12:43:20;;;;;;;4.00;1.80;;;;;;;;;;5013248;28;20462;-75
2023/07/14 12:45:47;;;;;;;8.20;2.60;;;;;;;;;;5013523;28;20446;-76
2023/07/14 12:48:14;;;;;;;1.60;1.50;;;;;;;;;;5013545;28;20453;-76
2023/07/14 12:50:45;;;;;;;2.33;1.80;;;;;;;;;;5012917;28;20983;-76
2023/07/14 12:53:14;;;;;;;2.47;1.87;;;;;;;;;;5013518;28;20918;-76
2023/07/14 12:55:41;;;;;;;7.57;1.90;;;;;;;;;;5013354;28;20466;-75
2023/07/14 12:58:09;;;;;;;2.23;1.63;;;;;;;;;;5013311;28;20465;-75
2023/07/14 13:00:37;;;;;;;2.53;1.83;;;;;;;;;;5013161;28;20470;-75
2023/07/14 13:03:10;;;;;;;2.13;1.63;;;;;;;;;;5012882;28;20482;-75
2023/07/14 13:05:38;;;;;;;2.40;1.90;;;;;;;;;;5013370;28;20431;-76
2023/07/14 13:08:09;;;;;;;3.03;2.73;;;;;;;;;;5012795;28;20627;-75
2023/07/14 13:10:38;;;;;;;3.17;1.80;;;;;;;;;;5012806;28;21025;-75
2023/07/14 13:13:07;;;;;;;3.20;1.70;;;;;;;;;;5012128;28;20462;-73
2023/07/14 13:15:34;;;;;;;2.30;1.57;;;;;;;;;;5012284;28;20490;-73
2023/07/14 13:18:05;;;;;;;2.40;1.80;;;;;;;;;;5012386;28;20569;-73
2023/07/14 13:20:37;;;;;;;3.60;2.00;;;;;;;;;;5012250;28;20474;-73
2023/07/14 13:23:19;;;;;;;2.43;1.90;;;;;;;;;;5012240;28;20477;-73
2023/07/14 13:25:51;;;;;;;2.23;1.90;;;;;;;;;;5012412;28;20474;-73
2023/07/14 13:28:18;;;;;;;3.77;1.63;;;;;;;;;;5012121;28;20459;-73
2023/07/14 13:30:46;;;;;;;2.80;2.20;;;;;;;;;;5012283;28;21016;-73
2023/07/14 13:33:15;;;;;;;1.80;1.60;;;;;;;;;;5012303;28;20450;-73
2023/07/14 13:35:54;;;;;;;2.43;1.77;;;;;;;;;;5012418;28;20494;-73
2023/07/14 13:38:23;;;;;;;1.90;1.70;;;;;;;;;;5012177;28;20824;-73
2023/07/14 13:40:52;;;;;;;3.60;1.77;;;;;;;;;;5012359;28;20501;-74
2023/07/14 13:43:21;;;;;;;2.67;2.00;;;;;;;;;;5032493;28;20939;-73
2023/07/14 13:45:57;;;;;;;2.37;2.10;;;;;;;;;;5032243;28;20548;-73
2023/07/14 13:48:25;;;;;;;3.90;1.77;;;;;;;;;;5031926;28;20453;-74
2023/07/14 13:50:52;;;;;;;2.80;1.60;;;;;;;;;;5031959;28;20469;-73
2023/07/14 13:53:20;;;;;;;2.93;1.90;;;;;;;;;;5031938;28;20465;-72
2023/07/14 13:55:49;;;;;;;5.33;1.83;;;;;;;;;;5031916;28;20540;-72
2023/07/14 13:58:16;;;;;;;4.60;1.90;;;;;;;;;;5031589;28;20461;-72
2023/07/14 14:00:43;;;;;;;1.80;1.57;;;;;;;;;;5031894;28;20469;-74
2023/07/14 14:03:12;;;;;;;3.40;2.03;;;;;;;;;;5031810;28;20824;-74
2023/07/14 14:05:41;;;;;;;2.23;1.80;;;;;;;;;;5030136;28;20454;-76
2023/07/14 14:08:11;;;;;;;3.33;1.90;;;;;;;;;;4990480;28;20830;-74
2023/07/14 14:10:38;;;;;;;2.60;1.87;;;;;;;;;;4990949;28;20478;-75
2023/07/14 14:13:06;;;;;;;3.60;2.17;;;;;;;;;;4990972;28;20448;-74
2023/07/14 14:15:35;;;;;;;2.00;1.63;;;;;;;;;;4991112;28;20856;-73
2023/07/14 14:18:04;;;;;;;2.37;2.17;;;;;;;;;;4991326;28;20462;-74
2023/07/14 14:20:33;;;;;;;4.43;1.90;;;;;;;;;;4991233;28;20571;-75
2023/07/14 14:23:05;;;;;;;4.20;1.73;;;;;;;;;;4991188;28;20832;-72
2023/07/14 14:25:33;;;;;;;2.63;2.43;;;;;;;;;;4990667;28;20579;-75
2023/07/14 14:28:00;;;;;;;5.80;1.70;;;;;;;;;;4991292;28;20815;-72
2023/07/14 14:30:30;;;;;;;2.27;1.93;;;;;;;;;;4991109;28;20478;-75
2023/07/14 14:32:59;;;;;;;2.50;1.90;;;;;;;;;;4991227;28;20455;-72
2023/07/14 14:35:28;;;;;;;4.13;1.80;;;;;;;;;;4990877;28;21091;-72
2023/07/14 14:37:56;;;;;;;2.10;1.87;;;;;;;;;;4990783;28;20897;-73
2023/07/14 14:40:23;;;;;;;3.27;2.13;;;;;;;;;;4990678;28;20475;-73
2023/07/14 14:42:50;;;;;;;3.60;2.07;;;;;;;;;;4990708;28;20451;-75
2023/07/14 14:45:21;;;;;;;5.70;2.23;;;;;;;;;;4990930;28;20458;-72
2023/07/14 14:47:49;;;;;;;2.80;2.30;;;;;;;;;;4990731;28;20452;-72
2023/07/14 14:50:17;;;;;;;5.37;2.33;;;;;;;;;;4990760;28;20501;-72
2023/07/14 14:52:44;;;;;;;5.50;2.13;;;;;;;;;;4993431;28;20462;-72
2023/07/14 14:55:14;;;;;;;2.07;1.87;;;;;;;;;;4995301;28;20487;-72
2023/07/14 14:57:42;;;;;;;2.70;1.93;;;;;;;;;;4995421;28;20451;-73
2023/07/14 15:00:15;;;;;;;2.27;1.80;;;;;;;;;;4995547;28;20877;-73